West Paducah, KY

10:51 AM CDT on May 27, 2015 (GMT -0500)
Grahamville | | Change Station
CLOSE
Current Station
Personal Weather Station
Location: West Paducah, KY
Elevation: 390 ft
Nearby Weather Stations

Elev 390 ft 37.11 °N, 88.78 °W | Updated 1 minute ago

Overcast
Overcast
72.8 °F
Feels Like 74 °F
N
3.0
Wind Variable Wind from South
Gusts 5.0 mph

Today
High -- | Low -- °F
--% Chance of Precip.
Yesterday
High -- | Low -- °F
Precip. -- in
5:39 AM 8:05 PM
Waxing Gibbous, 68% visible
Pressure 30.13 in
Visibility 10.0 miles
Clouds Few 1800 ft
Mostly Cloudy 3700 ft
Overcast 7000 ft
Heat Index 74 °F
Dew Point 65 °F
Humidity 77%
Rainfall 0.02 in
Snow Depth Not available.
UV 2 out of 12
Pollen 8.20 out of 12
Air Quality Not available.
Flu Activity Sporadic
METAR KPAH 271453Z 30007KT 10SM FEW018 BKN037 OVC070 22/17 A3013 RMK AO2 RAB40E53 SLP201 P0000 60000 T02170167 50015

More Conditions Fewer Conditions

Pressure 30.13 in
Visibility 10.0 miles
Clouds Few 1800 ft
Mostly Cloudy 3700 ft
Overcast 7000 ft
Heat Index 74 °F
Dew Point 65 °F
Humidity 77%
Rainfall 0.02 in
Snow Depth Not available.
UV 2 out of 12
Pollen 8.20 out of 12
Air Quality Not available.
Flu Activity Sporadic
METAR KPAH 271453Z 30007KT 10SM FEW018 BKN037 OVC070 22/17 A3013 RMK AO2 RAB40E53 SLP201 P0000 60000 T02170167 50015

More Conditions Fewer Conditions

10-Day Weather Forecast

Almanac

Astronomy

May. 27, 2015 Rise Set
Actual Time
Civil Twilight
Nautical Twilight
Astronomical Twilight
Moon
Length of Visible Light
Length of Day
Tomorrow will be .
, % of the Moon is Illuminated

Today's Extremes

State Highs State Lows

Community

WunderPhotos

Upload Photos

1,824,699 photos uploaded!

WunderBlogs® & News

Nearby

Air Quality

  Air Quality AQ Index Pollutant
Not available.

Snow Depth

Station Depth Elevation

Earthquake Activity

City Distance Mag. Time & Date
Minimum magnitude displayed is 2.5.

Coastal Water Temperatures

Place Temperature

Stations

Nearby Weather Stations

Station Location Temp. Windchill Dew Point Humidity Wind Precip. Elev Updated Type